createdAt,value
2022-12-20T00:01:09.771Z,9.70
2022-12-20T00:06:14.511Z,9.60
2022-12-20T00:11:17.728Z,10.93
2022-12-20T00:16:24.655Z,9.73
2022-12-20T00:21:29.434Z,9.98
2022-12-20T00:26:34.491Z,10.57
2022-12-20T00:31:39.084Z,10.73
2022-12-20T00:36:42.294Z,9.13
2022-12-20T00:41:45.476Z,10.00
2022-12-20T00:46:51.757Z,9.95
2022-12-20T00:51:55.364Z,8.90
2022-12-20T00:56:58.562Z,10.32
2022-12-20T01:02:03.342Z,9.38
2022-12-20T01:07:06.732Z,10.68
2022-12-20T01:12:09.979Z,9.65
2022-12-20T01:17:15.407Z,9.77
2022-12-20T01:22:18.675Z,10.40
2022-12-20T01:27:22.055Z,10.00
2022-12-20T01:32:26.577Z,9.77
2022-12-20T01:37:29.801Z,10.83
2022-12-20T01:42:33.283Z,10.85
2022-12-20T01:47:38.492Z,10.48
2022-12-20T01:52:45.017Z,9.48
2022-12-20T01:57:52.457Z,8.73
2022-12-20T02:03:01.477Z,10.60
2022-12-20T02:08:06.152Z,8.88
2022-12-20T02:13:18.868Z,11.33
2022-12-20T02:18:29.454Z,10.10
2022-12-20T02:23:57.222Z,10.13
2022-12-20T02:29:20.131Z,9.98
2022-12-20T02:34:26.323Z,8.75
2022-12-20T02:39:31.587Z,8.77
2022-12-20T02:44:58.207Z,9.23
2022-12-20T02:50:04.163Z,10.07
2022-12-20T02:55:08.354Z,9.57
2022-12-20T03:00:16.490Z,10.43
2022-12-20T03:05:24.311Z,9.98
2022-12-20T03:10:28.422Z,10.30
2022-12-20T03:15:31.886Z,10.55
2022-12-20T03:20:39.372Z,9.70
2022-12-20T03:25:42.600Z,9.63
2022-12-20T03:30:50.244Z,9.10
2022-12-20T03:35:54.886Z,8.68
2022-12-20T03:46:01.846Z,9.30
2022-12-20T03:51:11.997Z,8.48
2022-12-20T03:56:15.769Z,9.10
2022-12-20T04:01:22.543Z,9.32
2022-12-20T04:06:27.995Z,8.48
2022-12-20T04:11:31.708Z,7.97
2022-12-20T04:16:45.093Z,8.68
2022-12-20T04:21:50.875Z,7.53
2022-12-20T04:26:56.025Z,9.63
2022-12-20T04:31:59.893Z,7.85
2022-12-20T04:37:05.120Z,8.02
2022-12-20T04:42:20.327Z,7.88
2022-12-20T04:47:24.278Z,7.28
2022-12-20T04:52:48.853Z,9.45
2022-12-20T04:57:53.094Z,7.78
2022-12-20T05:02:56.585Z,7.70
2022-12-20T05:13:09.353Z,7.68
2022-12-20T05:18:17.359Z,7.85
2022-12-20T05:23:47.413Z,8.05
2022-12-20T05:28:55.118Z,8.02
2022-12-20T05:33:58.575Z,9.73
2022-12-20T05:39:07.598Z,8.35
2022-12-20T05:44:15.276Z,7.97
2022-12-20T05:49:21.789Z,9.23
2022-12-20T05:54:26.750Z,8.13
2022-12-20T05:59:41.536Z,8.32
2022-12-20T06:04:53.493Z,8.30
2022-12-20T06:10:00.352Z,9.65
2022-12-20T06:15:16.651Z,8.15
2022-12-20T06:20:20.021Z,8.00
2022-12-20T06:25:27.238Z,9.15
2022-12-20T06:30:34.042Z,8.80
2022-12-20T06:35:43.371Z,8.32
2022-12-20T06:40:48.392Z,7.82
2022-12-20T06:45:51.688Z,10.20
2022-12-20T06:50:56.229Z,7.70
2022-12-20T06:56:02.400Z,8.43
2022-12-20T07:01:08.236Z,7.40
2022-12-20T07:06:13.348Z,8.77
2022-12-20T07:11:22.343Z,8.25
2022-12-20T07:16:32.207Z,8.82
2022-12-20T07:21:36.428Z,8.85
2022-12-20T07:26:43.558Z,9.02
2022-12-20T07:31:47.154Z,8.68
2022-12-20T07:36:50.514Z,8.43
2022-12-20T07:41:56.065Z,9.82
2022-12-20T07:46:59.659Z,7.65
2022-12-20T07:52:05.803Z,10.10
2022-12-20T07:57:17.524Z,8.75
2022-12-20T08:02:27.243Z,10.05
2022-12-20T08:07:31.369Z,9.68
2022-12-20T08:12:36.806Z,8.60
2022-12-20T08:17:40.015Z,8.35
2022-12-20T08:22:43.374Z,8.95
2022-12-20T08:27:48.429Z,9.50
2022-12-20T08:32:51.852Z,9.38
2022-12-20T08:37:55.542Z,9.98
2022-12-20T08:43:04.974Z,9.93
2022-12-20T08:48:11.474Z,9.70
2022-12-20T08:53:14.836Z,10.55
2022-12-20T08:58:19.694Z,8.48
2022-12-20T09:03:22.930Z,9.27
2022-12-20T09:08:27.540Z,8.52
2022-12-20T09:13:33.669Z,10.93
2022-12-20T09:18:38.624Z,11.35
2022-12-20T09:23:42.107Z,11.32
2022-12-20T09:28:47.192Z,10.77
2022-12-20T09:33:53.331Z,10.95
2022-12-20T09:38:56.963Z,10.07
2022-12-20T09:44:12.502Z,9.30
2022-12-20T09:49:18.729Z,10.43
2022-12-20T09:54:32.596Z,10.43
2022-12-20T09:59:45.934Z,10.15
2022-12-20T10:04:53.747Z,9.73
2022-12-20T10:10:38.536Z,10.43
2022-12-20T10:15:50.864Z,9.50
2022-12-20T10:21:00.932Z,9.52
2022-12-20T10:26:10.703Z,10.68
2022-12-20T10:31:16.640Z,10.65
2022-12-20T10:36:23.310Z,11.23
2022-12-20T10:41:29.555Z,9.07
2022-12-20T10:46:40.656Z,9.68
2022-12-20T10:51:52.433Z,10.73
2022-12-20T10:56:57.308Z,8.73
2022-12-20T11:02:21.424Z,10.25
2022-12-20T11:07:28.117Z,9.40
2022-12-20T11:12:31.791Z,9.18
2022-12-20T11:17:41.417Z,9.10
2022-12-20T11:22:51.944Z,8.18
2022-12-20T11:28:10.623Z,9.15
2022-12-20T11:33:40.928Z,8.15
2022-12-20T11:38:48.691Z,7.50
2022-12-20T11:49:52.960Z,7.95
2022-12-20T11:55:04.543Z,7.78
2022-12-20T12:00:14.471Z,6.50
2022-12-20T12:05:24.398Z,7.72
2022-12-20T12:10:34.537Z,6.70
2022-12-20T12:15:48.150Z,7.55
2022-12-20T12:21:03.518Z,7.35
2022-12-20T12:26:13.314Z,6.50
2022-12-20T12:31:21.418Z,7.68
2022-12-20T12:36:40.273Z,6.47
2022-12-20T12:42:37.817Z,6.93
2022-12-20T12:47:47.760Z,6.18
2022-12-20T12:52:54.923Z,7.00
2022-12-20T12:57:58.731Z,6.68
2022-12-20T13:03:14.337Z,5.93
2022-12-20T13:08:19.873Z,6.43
2022-12-20T13:13:24.263Z,6.65
2022-12-20T13:18:28.441Z,5.78
2022-12-20T13:23:33.271Z,5.00
2022-12-20T13:28:44.419Z,5.70
2022-12-20T13:33:48.911Z,7.10
2022-12-20T13:38:56.510Z,5.43
2022-12-20T13:44:08.171Z,6.45
2022-12-20T13:49:17.478Z,6.35
2022-12-20T13:54:27.123Z,6.60
2022-12-20T13:59:32.605Z,6.75
2022-12-20T14:04:42.816Z,6.75
2022-12-20T14:09:56.607Z,6.45
2022-12-20T14:14:59.987Z,6.13
2022-12-20T14:20:17.959Z,6.75
2022-12-20T14:25:32.122Z,6.07
2022-12-20T14:30:42.896Z,6.15
2022-12-20T14:35:48.215Z,6.07
2022-12-20T14:40:54.494Z,6.82
2022-12-20T14:46:19.621Z,5.82
2022-12-20T14:51:23.075Z,6.97
2022-12-20T14:56:31.882Z,7.38
2022-12-20T15:01:43.435Z,6.18
2022-12-20T15:07:28.008Z,5.65
2022-12-20T15:12:36.284Z,7.50
2022-12-20T15:17:43.755Z,7.00
2022-12-20T15:22:47.491Z,6.95
2022-12-20T15:27:52.167Z,6.93
2022-12-20T15:32:56.212Z,6.93
2022-12-20T15:37:59.646Z,6.28
2022-12-20T15:43:04.437Z,7.00
2022-12-20T15:48:14.174Z,8.00
2022-12-20T15:53:22.596Z,7.57
2022-12-20T15:58:27.526Z,7.70
2022-12-20T16:03:32.455Z,7.88
2022-12-20T16:08:35.870Z,8.60
2022-12-20T16:13:40.503Z,9.13
2022-12-20T16:18:45.169Z,8.90
2022-12-20T16:23:50.784Z,9.23
2022-12-20T16:28:56.634Z,7.45
2022-12-20T16:34:03.048Z,7.47
2022-12-20T16:39:06.816Z,7.88
2022-12-20T16:44:15.218Z,8.33
2022-12-20T16:49:20.708Z,9.32
2022-12-20T16:54:24.792Z,8.68
2022-12-20T16:59:29.281Z,8.88
2022-12-20T17:04:32.596Z,9.03
2022-12-20T17:09:35.855Z,9.07
2022-12-20T17:14:40.431Z,7.60
2022-12-20T17:19:43.992Z,9.18
2022-12-20T17:24:47.359Z,9.10
2022-12-20T17:29:52.300Z,7.32
2022-12-20T17:34:55.704Z,9.23
2022-12-20T17:39:59.261Z,8.50
2022-12-20T17:45:04.436Z,7.60
2022-12-20T17:55:42.923Z,7.05
2022-12-20T18:00:52.494Z,7.18
2022-12-20T18:05:55.704Z,9.47
2022-12-20T18:10:59.216Z,8.52
2022-12-20T18:16:07.169Z,8.48
2022-12-20T18:21:12.422Z,8.55
2022-12-20T18:26:18.697Z,9.82
2022-12-20T18:31:25.696Z,8.63
2022-12-20T18:36:31.599Z,8.20
2022-12-20T18:41:35.341Z,7.85
2022-12-20T18:46:41.105Z,9.35
2022-12-20T19:12:08.112Z,8.57
2022-12-20T19:17:37.228Z,8.68
2022-12-20T19:23:09.782Z,8.43
2022-12-20T19:28:14.781Z,8.25
2022-12-20T19:33:18.768Z,7.82
2022-12-20T19:38:22.299Z,8.25
2022-12-20T19:43:27.456Z,7.63
2022-12-20T19:48:33.304Z,9.57
2022-12-20T19:53:37.089Z,8.55
2022-12-20T19:58:42.483Z,8.60
2022-12-20T20:03:46.469Z,9.00
2022-12-20T20:08:51.774Z,8.40
2022-12-20T20:14:00.534Z,8.95
2022-12-20T20:19:05.833Z,8.93
2022-12-20T20:24:09.866Z,8.32
2022-12-20T20:29:14.801Z,9.45
2022-12-20T20:34:18.336Z,9.20
2022-12-20T20:39:21.700Z,8.90
2022-12-20T20:44:27.519Z,8.48
2022-12-20T20:54:34.465Z,8.50
2022-12-20T20:59:39.589Z,10.05
2022-12-20T21:04:46.548Z,8.18
2022-12-20T21:10:14.186Z,9.63
2022-12-20T21:15:31.034Z,9.23
2022-12-20T21:20:43.583Z,8.95
2022-12-20T21:25:58.591Z,8.98
2022-12-20T21:36:32.489Z,9.93
2022-12-20T21:41:37.754Z,9.38
2022-12-20T21:51:59.970Z,7.10
2022-12-20T21:57:14.304Z,7.88
2022-12-20T22:02:25.581Z,8.52
2022-12-20T22:07:29.741Z,8.27
2022-12-20T22:12:36.058Z,8.07
2022-12-20T22:17:45.007Z,8.38
2022-12-20T22:22:51.967Z,7.68
2022-12-20T22:28:01.620Z,7.75
2022-12-20T22:33:16.895Z,8.05
2022-12-20T22:38:27.427Z,8.75
2022-12-20T22:43:36.406Z,8.80
2022-12-20T22:48:57.885Z,9.63
2022-12-20T22:54:05.537Z,7.82
2022-12-20T22:59:12.254Z,10.05
2022-12-20T23:04:18.569Z,8.52
2022-12-20T23:09:24.192Z,9.77
2022-12-20T23:14:57.435Z,8.68
2022-12-20T23:20:30.663Z,9.18
2022-12-20T23:25:34.634Z,9.10
2022-12-20T23:30:40.638Z,9.40
2022-12-20T23:35:58.477Z,8.70
2022-12-20T23:41:08.374Z,10.23
2022-12-20T23:46:19.560Z,10.43
2022-12-20T23:51:31.543Z,8.18
2022-12-20T23:56:44.082Z,8.90
